sensor_id;sensor_type;location;lat;lon;timestamp;P1;durP1;ratioP1;P2;durP2;ratioP2
11305;SDS011;5708;50.660;6.778;2022-10-16T00:00:27;2.55;;;1.27;;
11305;SDS011;5708;50.660;6.778;2022-10-16T00:02:52;3.35;;;1.25;;
11305;SDS011;5708;50.660;6.778;2022-10-16T00:05:17;3.70;;;1.50;;
11305;SDS011;5708;50.660;6.778;2022-10-16T00:07:43;2.63;;;1.58;;
11305;SDS011;5708;50.660;6.778;2022-10-16T00:10:08;5.22;;;1.67;;
11305;SDS011;5708;50.660;6.778;2022-10-16T00:12:33;2.60;;;1.45;;
11305;SDS011;5708;50.660;6.778;2022-10-16T00:14:59;3.13;;;1.42;;
11305;SDS011;5708;50.660;6.778;2022-10-16T00:17:24;2.83;;;1.20;;
11305;SDS011;5708;50.660;6.778;2022-10-16T00:19:49;2.70;;;1.58;;
11305;SDS011;5708;50.660;6.778;2022-10-16T00:22:14;2.67;;;1.38;;
11305;SDS011;5708;50.660;6.778;2022-10-16T00:24:40;2.10;;;1.40;;
11305;SDS011;5708;50.660;6.778;2022-10-16T00:27:05;2.35;;;1.33;;
11305;SDS011;5708;50.660;6.778;2022-10-16T00:29:30;2.72;;;1.50;;
11305;SDS011;5708;50.660;6.778;2022-10-16T00:31:56;3.58;;;1.40;;
11305;SDS011;5708;50.660;6.778;2022-10-16T00:34:21;3.08;;;1.73;;
11305;SDS011;5708;50.660;6.778;2022-10-16T00:36:46;2.75;;;1.40;;
11305;SDS011;5708;50.660;6.778;2022-10-16T00:39:11;3.92;;;1.48;;
11305;SDS011;5708;50.660;6.778;2022-10-16T00:41:37;2.63;;;1.60;;
11305;SDS011;5708;50.660;6.778;2022-10-16T00:44:03;3.10;;;1.60;;
11305;SDS011;5708;50.660;6.778;2022-10-16T00:46:49;3.85;;;1.60;;
11305;SDS011;5708;50.660;6.778;2022-10-16T00:49:15;2.38;;;1.48;;
11305;SDS011;5708;50.660;6.778;2022-10-16T00:51:43;2.97;;;1.48;;
11305;SDS011;5708;50.660;6.778;2022-10-16T00:54:12;2.42;;;1.48;;
11305;SDS011;5708;50.660;6.778;2022-10-16T00:56:39;2.35;;;1.52;;
11305;SDS011;5708;50.660;6.778;2022-10-16T00:59:06;1.77;;;1.30;;
11305;SDS011;5708;50.660;6.778;2022-10-16T01:01:39;2.05;;;1.17;;
11305;SDS011;5708;50.660;6.778;2022-10-16T01:04:04;3.90;;;1.17;;
11305;SDS011;5708;50.660;6.778;2022-10-16T01:06:39;2.92;;;1.02;;
11305;SDS011;5708;50.660;6.778;2022-10-16T01:09:12;1.88;;;1.00;;
11305;SDS011;5708;50.660;6.778;2022-10-16T01:11:44;3.85;;;1.20;;
11305;SDS011;5708;50.660;6.778;2022-10-16T01:14:22;3.55;;;1.23;;
11305;SDS011;5708;50.660;6.778;2022-10-16T01:16:58;1.67;;;1.10;;
11305;SDS011;5708;50.660;6.778;2022-10-16T01:22:30;2.80;;;1.40;;
11305;SDS011;5708;50.660;6.778;2022-10-16T01:25:02;1.27;;;1.10;;
11305;SDS011;5708;50.660;6.778;2022-10-16T01:27:30;1.85;;;1.33;;
11305;SDS011;5708;50.660;6.778;2022-10-16T01:30:01;2.47;;;1.33;;
11305;SDS011;5708;50.660;6.778;2022-10-16T01:35:29;2.13;;;1.10;;
11305;SDS011;5708;50.660;6.778;2022-10-16T01:38:15;1.77;;;0.85;;
11305;SDS011;5708;50.660;6.778;2022-10-16T01:40:44;2.20;;;1.10;;
11305;SDS011;5708;50.660;6.778;2022-10-16T01:43:14;3.30;;;1.10;;
11305;SDS011;5708;50.660;6.778;2022-10-16T01:45:44;1.45;;;0.98;;
11305;SDS011;5708;50.660;6.778;2022-10-16T01:48:11;5.50;;;1.13;;
11305;SDS011;5708;50.660;6.778;2022-10-16T01:50:38;3.13;;;1.10;;
11305;SDS011;5708;50.660;6.778;2022-10-16T01:53:05;2.97;;;1.00;;
11305;SDS011;5708;50.660;6.778;2022-10-16T01:55:33;3.22;;;0.90;;
11305;SDS011;5708;50.660;6.778;2022-10-16T01:58:02;1.30;;;0.82;;
11305;SDS011;5708;50.660;6.778;2022-10-16T02:00:30;3.13;;;0.88;;
11305;SDS011;5708;50.660;6.778;2022-10-16T02:02:56;1.63;;;0.90;;
11305;SDS011;5708;50.660;6.778;2022-10-16T02:05:26;1.33;;;0.80;;
11305;SDS011;5708;50.660;6.778;2022-10-16T02:07:54;3.83;;;1.10;;
11305;SDS011;5708;50.660;6.778;2022-10-16T02:10:19;2.33;;;0.77;;
11305;SDS011;5708;50.660;6.778;2022-10-16T02:12:48;1.52;;;0.80;;
11305;SDS011;5708;50.660;6.778;2022-10-16T02:15:17;4.40;;;0.88;;
11305;SDS011;5708;50.660;6.778;2022-10-16T02:17:42;4.85;;;0.90;;
11305;SDS011;5708;50.660;6.778;2022-10-16T02:20:07;1.27;;;0.90;;
11305;SDS011;5708;50.660;6.778;2022-10-16T02:22:34;2.85;;;0.88;;
11305;SDS011;5708;50.660;6.778;2022-10-16T02:25:12;2.90;;;1.08;;
11305;SDS011;5708;50.660;6.778;2022-10-16T02:30:29;1.77;;;0.82;;
11305;SDS011;5708;50.660;6.778;2022-10-16T02:32:57;2.35;;;0.90;;
11305;SDS011;5708;50.660;6.778;2022-10-16T02:35:24;2.03;;;0.80;;
11305;SDS011;5708;50.660;6.778;2022-10-16T02:37:50;2.70;;;1.15;;
11305;SDS011;5708;50.660;6.778;2022-10-16T02:40:15;1.33;;;0.60;;
11305;SDS011;5708;50.660;6.778;2022-10-16T02:42:42;2.22;;;1.00;;
11305;SDS011;5708;50.660;6.778;2022-10-16T02:45:08;3.20;;;0.77;;
11305;SDS011;5708;50.660;6.778;2022-10-16T02:47:34;1.88;;;0.90;;
11305;SDS011;5708;50.660;6.778;2022-10-16T02:49:59;2.33;;;0.98;;
11305;SDS011;5708;50.660;6.778;2022-10-16T02:52:25;2.90;;;1.05;;
11305;SDS011;5708;50.660;6.778;2022-10-16T02:54:50;2.58;;;1.10;;
11305;SDS011;5708;50.660;6.778;2022-10-16T02:57:16;2.42;;;0.80;;
11305;SDS011;5708;50.660;6.778;2022-10-16T02:59:42;1.30;;;0.77;;
11305;SDS011;5708;50.660;6.778;2022-10-16T03:02:07;1.92;;;0.93;;
11305;SDS011;5708;50.660;6.778;2022-10-16T03:04:32;1.85;;;1.10;;
11305;SDS011;5708;50.660;6.778;2022-10-16T03:06:58;2.67;;;1.20;;
11305;SDS011;5708;50.660;6.778;2022-10-16T03:09:23;1.15;;;0.80;;
11305;SDS011;5708;50.660;6.778;2022-10-16T03:11:48;1.33;;;0.93;;
11305;SDS011;5708;50.660;6.778;2022-10-16T03:14:14;3.17;;;0.93;;
11305;SDS011;5708;50.660;6.778;2022-10-16T03:16:39;2.72;;;0.90;;
11305;SDS011;5708;50.660;6.778;2022-10-16T03:19:04;1.95;;;0.90;;
11305;SDS011;5708;50.660;6.778;2022-10-16T03:21:30;4.50;;;1.10;;
11305;SDS011;5708;50.660;6.778;2022-10-16T03:23:55;1.73;;;0.90;;
11305;SDS011;5708;50.660;6.778;2022-10-16T03:26:20;2.20;;;0.93;;
11305;SDS011;5708;50.660;6.778;2022-10-16T03:28:45;2.33;;;0.85;;
11305;SDS011;5708;50.660;6.778;2022-10-16T03:31:12;2.83;;;1.08;;
11305;SDS011;5708;50.660;6.778;2022-10-16T03:33:37;2.63;;;0.90;;
11305;SDS011;5708;50.660;6.778;2022-10-16T03:36:02;2.92;;;0.90;;
11305;SDS011;5708;50.660;6.778;2022-10-16T03:38:28;2.25;;;0.90;;
11305;SDS011;5708;50.660;6.778;2022-10-16T03:40:53;1.08;;;0.77;;
11305;SDS011;5708;50.660;6.778;2022-10-16T03:43:18;2.65;;;0.93;;
11305;SDS011;5708;50.660;6.778;2022-10-16T03:45:44;2.22;;;0.90;;
11305;SDS011;5708;50.660;6.778;2022-10-16T03:48:09;3.75;;;1.00;;
11305;SDS011;5708;50.660;6.778;2022-10-16T03:50:34;2.70;;;0.90;;
11305;SDS011;5708;50.660;6.778;2022-10-16T03:52:59;1.75;;;0.90;;
11305;SDS011;5708;50.660;6.778;2022-10-16T03:55:25;2.40;;;1.10;;
11305;SDS011;5708;50.660;6.778;2022-10-16T03:57:50;2.85;;;1.10;;
11305;SDS011;5708;50.660;6.778;2022-10-16T04:00:15;2.97;;;0.95;;
11305;SDS011;5708;50.660;6.778;2022-10-16T04:02:41;2.70;;;0.80;;
11305;SDS011;5708;50.660;6.778;2022-10-16T04:05:06;2.22;;;0.90;;
11305;SDS011;5708;50.660;6.778;2022-10-16T04:07:32;2.53;;;0.90;;
11305;SDS011;5708;50.660;6.778;2022-10-16T04:09:57;0.90;;;0.82;;
11305;SDS011;5708;50.660;6.778;2022-10-16T04:12:24;3.38;;;0.82;;
11305;SDS011;5708;50.660;6.778;2022-10-16T04:14:49;2.88;;;1.23;;
11305;SDS011;5708;50.660;6.778;2022-10-16T04:17:15;1.45;;;0.88;;
11305;SDS011;5708;50.660;6.778;2022-10-16T04:19:40;2.28;;;0.90;;
11305;SDS011;5708;50.660;6.778;2022-10-16T04:22:05;2.55;;;0.90;;
11305;SDS011;5708;50.660;6.778;2022-10-16T04:24:30;2.78;;;0.90;;
11305;SDS011;5708;50.660;6.778;2022-10-16T04:26:56;4.93;;;1.10;;
11305;SDS011;5708;50.660;6.778;2022-10-16T04:29:21;2.75;;;0.93;;
11305;SDS011;5708;50.660;6.778;2022-10-16T04:31:46;1.33;;;1.05;;
11305;SDS011;5708;50.660;6.778;2022-10-16T04:34:12;3.33;;;1.02;;
11305;SDS011;5708;50.660;6.778;2022-10-16T04:36:37;4.07;;;1.10;;
11305;SDS011;5708;50.660;6.778;2022-10-16T04:39:02;2.10;;;1.27;;
11305;SDS011;5708;50.660;6.778;2022-10-16T04:41:28;3.45;;;1.35;;
11305;SDS011;5708;50.660;6.778;2022-10-16T04:43:53;4.00;;;1.10;;
11305;SDS011;5708;50.660;6.778;2022-10-16T04:46:18;2.45;;;1.15;;
11305;SDS011;5708;50.660;6.778;2022-10-16T04:48:44;2.65;;;1.08;;
11305;SDS011;5708;50.660;6.778;2022-10-16T04:51:09;4.07;;;1.20;;
11305;SDS011;5708;50.660;6.778;2022-10-16T04:53:35;2.55;;;1.00;;
11305;SDS011;5708;50.660;6.778;2022-10-16T04:56:01;3.53;;;1.20;;
11305;SDS011;5708;50.660;6.778;2022-10-16T04:58:26;2.05;;;1.20;;
11305;SDS011;5708;50.660;6.778;2022-10-16T05:00:52;3.17;;;1.13;;
11305;SDS011;5708;50.660;6.778;2022-10-16T05:03:17;5.53;;;1.30;;
11305;SDS011;5708;50.660;6.778;2022-10-16T05:05:43;1.50;;;1.10;;
11305;SDS011;5708;50.660;6.778;2022-10-16T05:08:09;2.70;;;1.42;;
11305;SDS011;5708;50.660;6.778;2022-10-16T05:10:35;3.45;;;1.33;;
11305;SDS011;5708;50.660;6.778;2022-10-16T05:13:00;2.25;;;1.13;;
11305;SDS011;5708;50.660;6.778;2022-10-16T05:15:25;3.08;;;1.10;;
11305;SDS011;5708;50.660;6.778;2022-10-16T05:17:54;2.03;;;1.20;;
11305;SDS011;5708;50.660;6.778;2022-10-16T05:20:20;2.80;;;1.42;;
11305;SDS011;5708;50.660;6.778;2022-10-16T05:22:46;2.65;;;1.30;;
11305;SDS011;5708;50.660;6.778;2022-10-16T05:25:11;5.22;;;1.42;;
11305;SDS011;5708;50.660;6.778;2022-10-16T05:27:36;3.25;;;1.70;;
11305;SDS011;5708;50.660;6.778;2022-10-16T05:30:02;1.52;;;1.20;;
11305;SDS011;5708;50.660;6.778;2022-10-16T05:32:27;2.58;;;1.55;;
11305;SDS011;5708;50.660;6.778;2022-10-16T05:34:53;1.83;;;1.40;;
11305;SDS011;5708;50.660;6.778;2022-10-16T05:37:18;2.95;;;1.25;;
11305;SDS011;5708;50.660;6.778;2022-10-16T05:39:43;3.95;;;1.88;;
11305;SDS011;5708;50.660;6.778;2022-10-16T05:42:09;3.05;;;1.35;;
11305;SDS011;5708;50.660;6.778;2022-10-16T05:44:34;2.97;;;1.98;;
11305;SDS011;5708;50.660;6.778;2022-10-16T05:46:59;4.78;;;1.80;;
11305;SDS011;5708;50.660;6.778;2022-10-16T05:49:24;3.45;;;1.10;;
11305;SDS011;5708;50.660;6.778;2022-10-16T05:51:50;3.20;;;1.33;;
11305;SDS011;5708;50.660;6.778;2022-10-16T05:54:15;2.30;;;1.30;;
11305;SDS011;5708;50.660;6.778;2022-10-16T05:56:41;1.75;;;1.20;;
11305;SDS011;5708;50.660;6.778;2022-10-16T05:59:07;4.20;;;1.50;;
11305;SDS011;5708;50.660;6.778;2022-10-16T06:01:32;3.88;;;1.50;;
11305;SDS011;5708;50.660;6.778;2022-10-16T06:03:58;2.58;;;1.70;;
11305;SDS011;5708;50.660;6.778;2022-10-16T06:06:24;2.63;;;1.50;;
11305;SDS011;5708;50.660;6.778;2022-10-16T06:08:51;4.05;;;1.65;;
11305;SDS011;5708;50.660;6.778;2022-10-16T06:11:17;2.60;;;1.52;;
11305;SDS011;5708;50.660;6.778;2022-10-16T06:13:50;4.20;;;1.67;;
11305;SDS011;5708;50.660;6.778;2022-10-16T06:16:16;2.20;;;1.50;;
11305;SDS011;5708;50.660;6.778;2022-10-16T06:18:41;3.15;;;1.65;;
11305;SDS011;5708;50.660;6.778;2022-10-16T06:21:11;4.07;;;1.90;;
11305;SDS011;5708;50.660;6.778;2022-10-16T06:23:37;3.00;;;1.80;;
11305;SDS011;5708;50.660;6.778;2022-10-16T06:26:06;3.45;;;1.67;;
11305;SDS011;5708;50.660;6.778;2022-10-16T06:28:41;3.13;;;1.60;;
11305;SDS011;5708;50.660;6.778;2022-10-16T06:31:08;4.85;;;1.90;;
11305;SDS011;5708;50.660;6.778;2022-10-16T06:33:34;1.52;;;1.25;;
11305;SDS011;5708;50.660;6.778;2022-10-16T06:36:04;2.38;;;1.50;;
11305;SDS011;5708;50.660;6.778;2022-10-16T06:38:30;2.95;;;1.67;;
11305;SDS011;5708;50.660;6.778;2022-10-16T06:40:56;4.35;;;1.60;;
11305;SDS011;5708;50.660;6.778;2022-10-16T06:43:22;3.30;;;1.67;;
11305;SDS011;5708;50.660;6.778;2022-10-16T06:45:54;3.45;;;1.88;;
11305;SDS011;5708;50.660;6.778;2022-10-16T06:48:20;4.28;;;2.20;;
11305;SDS011;5708;50.660;6.778;2022-10-16T06:53:25;5.53;;;2.45;;
11305;SDS011;5708;50.660;6.778;2022-10-16T06:55:52;4.47;;;2.75;;
11305;SDS011;5708;50.660;6.778;2022-10-16T06:58:17;9.65;;;2.88;;
11305;SDS011;5708;50.660;6.778;2022-10-16T07:00:43;6.90;;;2.80;;
11305;SDS011;5708;50.660;6.778;2022-10-16T07:03:08;5.60;;;2.50;;
11305;SDS011;5708;50.660;6.778;2022-10-16T07:05:40;4.20;;;2.45;;
11305;SDS011;5708;50.660;6.778;2022-10-16T07:08:06;4.20;;;2.30;;
11305;SDS011;5708;50.660;6.778;2022-10-16T07:10:32;3.08;;;2.20;;
11305;SDS011;5708;50.660;6.778;2022-10-16T07:12:57;5.03;;;2.33;;
11305;SDS011;5708;50.660;6.778;2022-10-16T07:15:24;5.65;;;2.60;;
11305;SDS011;5708;50.660;6.778;2022-10-16T07:17:50;4.50;;;2.53;;
11305;SDS011;5708;50.660;6.778;2022-10-16T07:20:15;4.57;;;2.58;;
11305;SDS011;5708;50.660;6.778;2022-10-16T07:22:43;4.55;;;2.97;;
11305;SDS011;5708;50.660;6.778;2022-10-16T07:25:09;4.13;;;2.90;;
11305;SDS011;5708;50.660;6.778;2022-10-16T07:27:34;5.82;;;3.38;;
11305;SDS011;5708;50.660;6.778;2022-10-16T07:30:00;6.43;;;3.70;;
11305;SDS011;5708;50.660;6.778;2022-10-16T07:32:25;6.40;;;3.25;;
11305;SDS011;5708;50.660;6.778;2022-10-16T07:34:51;6.70;;;3.13;;
11305;SDS011;5708;50.660;6.778;2022-10-16T07:37:17;5.90;;;3.05;;
11305;SDS011;5708;50.660;6.778;2022-10-16T07:39:42;4.13;;;2.70;;
11305;SDS011;5708;50.660;6.778;2022-10-16T07:42:08;5.72;;;3.17;;
11305;SDS011;5708;50.660;6.778;2022-10-16T07:44:33;7.35;;;3.85;;
11305;SDS011;5708;50.660;6.778;2022-10-16T07:46:58;8.88;;;4.43;;
11305;SDS011;5708;50.660;6.778;2022-10-16T07:49:24;6.82;;;4.07;;
11305;SDS011;5708;50.660;6.778;2022-10-16T07:51:49;11.20;;;4.20;;
11305;SDS011;5708;50.660;6.778;2022-10-16T07:54:15;5.97;;;3.70;;
11305;SDS011;5708;50.660;6.778;2022-10-16T07:56:40;7.82;;;3.40;;
11305;SDS011;5708;50.660;6.778;2022-10-16T07:59:05;7.72;;;3.75;;
11305;SDS011;5708;50.660;6.778;2022-10-16T08:01:30;5.22;;;3.25;;
11305;SDS011;5708;50.660;6.778;2022-10-16T08:03:56;6.45;;;3.28;;
11305;SDS011;5708;50.660;6.778;2022-10-16T08:06:21;4.10;;;2.60;;
11305;SDS011;5708;50.660;6.778;2022-10-16T08:08:47;4.93;;;2.50;;
11305;SDS011;5708;50.660;6.778;2022-10-16T08:11:12;6.43;;;2.40;;
11305;SDS011;5708;50.660;6.778;2022-10-16T08:13:39;5.60;;;2.10;;
11305;SDS011;5708;50.660;6.778;2022-10-16T08:16:05;4.93;;;1.50;;
11305;SDS011;5708;50.660;6.778;2022-10-16T08:18:32;6.00;;;2.38;;
11305;SDS011;5708;50.660;6.778;2022-10-16T08:21:01;4.30;;;1.50;;
11305;SDS011;5708;50.660;6.778;2022-10-16T08:23:27;3.88;;;1.40;;
11305;SDS011;5708;50.660;6.778;2022-10-16T08:25:53;2.80;;;1.05;;
11305;SDS011;5708;50.660;6.778;2022-10-16T08:28:19;2.08;;;0.82;;
11305;SDS011;5708;50.660;6.778;2022-10-16T08:30:44;2.17;;;0.73;;
11305;SDS011;5708;50.660;6.778;2022-10-16T08:33:13;2.47;;;0.85;;
11305;SDS011;5708;50.660;6.778;2022-10-16T08:35:39;1.85;;;0.70;;
11305;SDS011;5708;50.660;6.778;2022-10-16T08:38:04;1.95;;;0.85;;
11305;SDS011;5708;50.660;6.778;2022-10-16T08:40:30;2.75;;;0.68;;
11305;SDS011;5708;50.660;6.778;2022-10-16T08:45:48;1.00;;;0.60;;
11305;SDS011;5708;50.660;6.778;2022-10-16T08:48:35;1.02;;;0.50;;
11305;SDS011;5708;50.660;6.778;2022-10-16T08:51:07;1.77;;;0.70;;
11305;SDS011;5708;50.660;6.778;2022-10-16T08:53:44;1.98;;;0.60;;
11305;SDS011;5708;50.660;6.778;2022-10-16T08:56:14;1.15;;;0.40;;
11305;SDS011;5708;50.660;6.778;2022-10-16T08:58:39;3.03;;;0.60;;
11305;SDS011;5708;50.660;6.778;2022-10-16T09:01:10;2.15;;;0.80;;
11305;SDS011;5708;50.660;6.778;2022-10-16T09:06:17;3.35;;;0.85;;
11305;SDS011;5708;50.660;6.778;2022-10-16T09:08:54;5.18;;;1.40;;
11305;SDS011;5708;50.660;6.778;2022-10-16T09:14:19;1.88;;;0.70;;
11305;SDS011;5708;50.660;6.778;2022-10-16T09:17:00;0.75;;;0.52;;
11305;SDS011;5708;50.660;6.778;2022-10-16T09:19:31;3.15;;;0.68;;
11305;SDS011;5708;50.660;6.778;2022-10-16T09:22:01;3.05;;;0.60;;
11305;SDS011;5708;50.660;6.778;2022-10-16T09:24:36;2.08;;;0.50;;
11305;SDS011;5708;50.660;6.778;2022-10-16T09:27:01;2.45;;;0.80;;
11305;SDS011;5708;50.660;6.778;2022-10-16T09:29:26;2.58;;;0.45;;
11305;SDS011;5708;50.660;6.778;2022-10-16T09:31:52;2.90;;;0.60;;
11305;SDS011;5708;50.660;6.778;2022-10-16T09:36:49;1.55;;;0.50;;
11305;SDS011;5708;50.660;6.778;2022-10-16T09:39:16;1.17;;;0.35;;
11305;SDS011;5708;50.660;6.778;2022-10-16T09:41:42;3.35;;;0.90;;
11305;SDS011;5708;50.660;6.778;2022-10-16T09:44:16;3.55;;;0.82;;
11305;SDS011;5708;50.660;6.778;2022-10-16T09:47:04;2.38;;;0.50;;
11305;SDS011;5708;50.660;6.778;2022-10-16T09:49:54;1.33;;;0.40;;
11305;SDS011;5708;50.660;6.778;2022-10-16T09:52:25;1.08;;;0.57;;
11305;SDS011;5708;50.660;6.778;2022-10-16T09:54:55;2.53;;;0.70;;
11305;SDS011;5708;50.660;6.778;2022-10-16T09:57:22;1.33;;;0.60;;
11305;SDS011;5708;50.660;6.778;2022-10-16T09:59:51;3.17;;;0.73;;
11305;SDS011;5708;50.660;6.778;2022-10-16T10:02:24;0.90;;;0.40;;
11305;SDS011;5708;50.660;6.778;2022-10-16T10:04:54;2.72;;;0.70;;
11305;SDS011;5708;50.660;6.778;2022-10-16T10:07:26;1.58;;;0.60;;
11305;SDS011;5708;50.660;6.778;2022-10-16T10:09:53;2.92;;;0.50;;
11305;SDS011;5708;50.660;6.778;2022-10-16T10:14:46;1.40;;;0.43;;
11305;SDS011;5708;50.660;6.778;2022-10-16T10:19:55;1.10;;;0.60;;
11305;SDS011;5708;50.660;6.778;2022-10-16T10:24:56;1.08;;;0.40;;
11305;SDS011;5708;50.660;6.778;2022-10-16T10:27:24;2.00;;;0.52;;
11305;SDS011;5708;50.660;6.778;2022-10-16T10:33:12;2.05;;;0.70;;
11305;SDS011;5708;50.660;6.778;2022-10-16T10:36:05;0.88;;;0.30;;
11305;SDS011;5708;50.660;6.778;2022-10-16T10:43:59;1.35;;;0.50;;
11305;SDS011;5708;50.660;6.778;2022-10-16T10:46:47;2.33;;;0.60;;
11305;SDS011;5708;50.660;6.778;2022-10-16T11:01:09;2.38;;;0.70;;
11305;SDS011;5708;50.660;6.778;2022-10-16T11:03:27;1.67;;;0.40;;
11305;SDS011;5708;50.660;6.778;2022-10-16T11:05:57;2.60;;;0.43;;
11305;SDS011;5708;50.660;6.778;2022-10-16T11:09:10;2.47;;;0.50;;
11305;SDS011;5708;50.660;6.778;2022-10-16T11:11:16;3.08;;;0.63;;
11305;SDS011;5708;50.660;6.778;2022-10-16T11:14:00;1.02;;;0.40;;
11305;SDS011;5708;50.660;6.778;2022-10-16T11:16:30;2.90;;;1.10;;
11305;SDS011;5708;50.660;6.778;2022-10-16T11:19:12;1.55;;;0.50;;
11305;SDS011;5708;50.660;6.778;2022-10-16T11:21:54;2.38;;;0.40;;
11305;SDS011;5708;50.660;6.778;2022-10-16T11:24:45;0.70;;;0.30;;
11305;SDS011;5708;50.660;6.778;2022-10-16T11:27:15;1.65;;;0.45;;
11305;SDS011;5708;50.660;6.778;2022-10-16T11:29:50;1.55;;;0.60;;
11305;SDS011;5708;50.660;6.778;2022-10-16T11:32:25;1.67;;;0.50;;
11305;SDS011;5708;50.660;6.778;2022-10-16T11:35:00;3.53;;;0.70;;
11305;SDS011;5708;50.660;6.778;2022-10-16T11:37:31;0.63;;;0.40;;
11305;SDS011;5708;50.660;6.778;2022-10-16T11:40:00;2.80;;;0.43;;
11305;SDS011;5708;50.660;6.778;2022-10-16T11:42:51;0.73;;;0.40;;
11305;SDS011;5708;50.660;6.778;2022-10-16T11:45:26;0.75;;;0.40;;
11305;SDS011;5708;50.660;6.778;2022-10-16T11:48:00;1.30;;;0.40;;
11305;SDS011;5708;50.660;6.778;2022-10-16T11:50:31;1.70;;;0.50;;
11305;SDS011;5708;50.660;6.778;2022-10-16T11:55:36;1.02;;;0.30;;
11305;SDS011;5708;50.660;6.778;2022-10-16T11:58:05;1.85;;;0.52;;
11305;SDS011;5708;50.660;6.778;2022-10-16T12:00:40;0.55;;;0.40;;
11305;SDS011;5708;50.660;6.778;2022-10-16T12:08:11;5.45;;;2.08;;
11305;SDS011;5708;50.660;6.778;2022-10-16T12:10:38;2.25;;;1.02;;
11305;SDS011;5708;50.660;6.778;2022-10-16T12:13:27;4.93;;;0.52;;
11305;SDS011;5708;50.660;6.778;2022-10-16T12:16:03;2.00;;;0.57;;
11305;SDS011;5708;50.660;6.778;2022-10-16T12:18:47;2.80;;;0.60;;
11305;SDS011;5708;50.660;6.778;2022-10-16T12:21:14;2.42;;;0.30;;
11305;SDS011;5708;50.660;6.778;2022-10-16T12:23:51;1.65;;;0.60;;
11305;SDS011;5708;50.660;6.778;2022-10-16T12:26:28;5.03;;;0.70;;
11305;SDS011;5708;50.660;6.778;2022-10-16T12:28:54;1.33;;;0.47;;
11305;SDS011;5708;50.660;6.778;2022-10-16T12:31:20;1.75;;;0.60;;
11305;SDS011;5708;50.660;6.778;2022-10-16T12:34:00;0.43;;;0.30;;
11305;SDS011;5708;50.660;6.778;2022-10-16T12:36:28;4.20;;;0.50;;
11305;SDS011;5708;50.660;6.778;2022-10-16T12:38:55;1.13;;;0.40;;
11305;SDS011;5708;50.660;6.778;2022-10-16T12:41:30;1.35;;;0.38;;
11305;SDS011;5708;50.660;6.778;2022-10-16T12:43:57;2.50;;;0.47;;
11305;SDS011;5708;50.660;6.778;2022-10-16T12:49:04;0.93;;;0.50;;
11305;SDS011;5708;50.660;6.778;2022-10-16T12:53:59;0.70;;;0.40;;
11305;SDS011;5708;50.660;6.778;2022-10-16T12:56:43;2.08;;;0.50;;
11305;SDS011;5708;50.660;6.778;2022-10-16T12:59:20;0.95;;;0.30;;
11305;SDS011;5708;50.660;6.778;2022-10-16T13:02:00;1.13;;;0.50;;
11305;SDS011;5708;50.660;6.778;2022-10-16T13:07:23;0.32;;;0.30;;
11305;SDS011;5708;50.660;6.778;2022-10-16T13:10:18;0.20;;;0.20;;
11305;SDS011;5708;50.660;6.778;2022-10-16T13:16:14;0.52;;;0.30;;
11305;SDS011;5708;50.660;6.778;2022-10-16T13:21:48;1.17;;;0.35;;
11305;SDS011;5708;50.660;6.778;2022-10-16T13:24:22;0.50;;;0.30;;
11305;SDS011;5708;50.660;6.778;2022-10-16T13:29:22;1.37;;;0.43;;
11305;SDS011;5708;50.660;6.778;2022-10-16T13:31:48;0.30;;;0.22;;
11305;SDS011;5708;50.660;6.778;2022-10-16T13:34:14;1.00;;;0.40;;
11305;SDS011;5708;50.660;6.778;2022-10-16T13:36:43;1.00;;;0.30;;
11305;SDS011;5708;50.660;6.778;2022-10-16T13:39:10;1.08;;;0.30;;
11305;SDS011;5708;50.660;6.778;2022-10-16T13:41:42;0.70;;;0.40;;
11305;SDS011;5708;50.660;6.778;2022-10-16T13:44:15;1.73;;;0.40;;
11305;SDS011;5708;50.660;6.778;2022-10-16T13:46:42;2.13;;;0.47;;
11305;SDS011;5708;50.660;6.778;2022-10-16T13:49:12;0.50;;;0.38;;
11305;SDS011;5708;50.660;6.778;2022-10-16T13:51:41;2.15;;;0.40;;
11305;SDS011;5708;50.660;6.778;2022-10-16T13:54:10;1.15;;;0.38;;
11305;SDS011;5708;50.660;6.778;2022-10-16T13:56:38;0.93;;;0.32;;
11305;SDS011;5708;50.660;6.778;2022-10-16T13:59:05;1.08;;;0.30;;
11305;SDS011;5708;50.660;6.778;2022-10-16T14:01:35;1.25;;;0.38;;
11305;SDS011;5708;50.660;6.778;2022-10-16T14:04:07;0.77;;;0.38;;
11305;SDS011;5708;50.660;6.778;2022-10-16T14:06:34;0.88;;;0.40;;
11305;SDS011;5708;50.660;6.778;2022-10-16T14:09:07;1.15;;;0.40;;
11305;SDS011;5708;50.660;6.778;2022-10-16T14:11:34;1.95;;;0.38;;
11305;SDS011;5708;50.660;6.778;2022-10-16T14:14:09;1.23;;;0.40;;
11305;SDS011;5708;50.660;6.778;2022-10-16T14:16:36;0.88;;;0.30;;
11305;SDS011;5708;50.660;6.778;2022-10-16T14:19:05;2.30;;;0.47;;
11305;SDS011;5708;50.660;6.778;2022-10-16T14:21:31;1.55;;;0.35;;
11305;SDS011;5708;50.660;6.778;2022-10-16T14:23:57;0.65;;;0.30;;
11305;SDS011;5708;50.660;6.778;2022-10-16T14:26:23;1.05;;;0.43;;
11305;SDS011;5708;50.660;6.778;2022-10-16T14:29:03;1.85;;;0.38;;
11305;SDS011;5708;50.660;6.778;2022-10-16T14:31:37;0.43;;;0.30;;
11305;SDS011;5708;50.660;6.778;2022-10-16T14:34:04;0.73;;;0.30;;
11305;SDS011;5708;50.660;6.778;2022-10-16T14:36:47;0.63;;;0.30;;
11305;SDS011;5708;50.660;6.778;2022-10-16T14:39:22;1.92;;;0.75;;
11305;SDS011;5708;50.660;6.778;2022-10-16T14:41:50;2.08;;;0.30;;
11305;SDS011;5708;50.660;6.778;2022-10-16T14:44:19;2.30;;;0.40;;
11305;SDS011;5708;50.660;6.778;2022-10-16T14:46:48;1.10;;;0.38;;
11305;SDS011;5708;50.660;6.778;2022-10-16T14:49:15;0.57;;;0.43;;
11305;SDS011;5708;50.660;6.778;2022-10-16T14:51:42;1.02;;;0.40;;
11305;SDS011;5708;50.660;6.778;2022-10-16T14:54:10;1.20;;;0.32;;
11305;SDS011;5708;50.660;6.778;2022-10-16T14:56:53;0.63;;;0.40;;
11305;SDS011;5708;50.660;6.778;2022-10-16T14:59:30;1.00;;;0.40;;
11305;SDS011;5708;50.660;6.778;2022-10-16T15:02:01;1.05;;;0.50;;
11305;SDS011;5708;50.660;6.778;2022-10-16T15:04:54;1.15;;;0.55;;
11305;SDS011;5708;50.660;6.778;2022-10-16T15:07:19;1.27;;;0.40;;
11305;SDS011;5708;50.660;6.778;2022-10-16T15:09:45;2.78;;;0.73;;
11305;SDS011;5708;50.660;6.778;2022-10-16T15:12:10;1.05;;;0.47;;
11305;SDS011;5708;50.660;6.778;2022-10-16T15:14:35;1.52;;;0.30;;
11305;SDS011;5708;50.660;6.778;2022-10-16T15:17:00;1.30;;;0.47;;
11305;SDS011;5708;50.660;6.778;2022-10-16T15:19:26;1.00;;;0.45;;
11305;SDS011;5708;50.660;6.778;2022-10-16T15:21:51;0.50;;;0.40;;
11305;SDS011;5708;50.660;6.778;2022-10-16T15:24:17;1.08;;;0.40;;
11305;SDS011;5708;50.660;6.778;2022-10-16T15:26:43;0.50;;;0.40;;
11305;SDS011;5708;50.660;6.778;2022-10-16T15:29:08;0.88;;;0.50;;
11305;SDS011;5708;50.660;6.778;2022-10-16T15:31:34;0.40;;;0.30;;
11305;SDS011;5708;50.660;6.778;2022-10-16T15:34:00;2.72;;;0.60;;
11305;SDS011;5708;50.660;6.778;2022-10-16T15:36:30;0.73;;;0.50;;
11305;SDS011;5708;50.660;6.778;2022-10-16T15:39:01;1.85;;;0.55;;
11305;SDS011;5708;50.660;6.778;2022-10-16T15:41:27;2.63;;;0.57;;
11305;SDS011;5708;50.660;6.778;2022-10-16T15:43:53;0.60;;;0.50;;
11305;SDS011;5708;50.660;6.778;2022-10-16T15:46:19;2.72;;;0.60;;
11305;SDS011;5708;50.660;6.778;2022-10-16T15:48:46;3.03;;;0.50;;
11305;SDS011;5708;50.660;6.778;2022-10-16T15:51:12;1.40;;;0.57;;
11305;SDS011;5708;50.660;6.778;2022-10-16T15:53:37;1.30;;;0.70;;
11305;SDS011;5708;50.660;6.778;2022-10-16T15:56:03;2.35;;;0.70;;
11305;SDS011;5708;50.660;6.778;2022-10-16T15:58:29;1.33;;;0.60;;
11305;SDS011;5708;50.660;6.778;2022-10-16T16:00:58;0.77;;;0.50;;
11305;SDS011;5708;50.660;6.778;2022-10-16T16:03:28;2.60;;;0.70;;
11305;SDS011;5708;50.660;6.778;2022-10-16T16:05:54;0.98;;;0.50;;
11305;SDS011;5708;50.660;6.778;2022-10-16T16:08:20;1.77;;;0.63;;
11305;SDS011;5708;50.660;6.778;2022-10-16T16:10:45;2.22;;;0.63;;
11305;SDS011;5708;50.660;6.778;2022-10-16T16:13:11;1.33;;;0.52;;
11305;SDS011;5708;50.660;6.778;2022-10-16T16:15:39;2.95;;;0.70;;
11305;SDS011;5708;50.660;6.778;2022-10-16T16:18:05;1.30;;;0.80;;
11305;SDS011;5708;50.660;6.778;2022-10-16T16:20:31;3.72;;;0.70;;
11305;SDS011;5708;50.660;6.778;2022-10-16T16:22:56;2.00;;;0.55;;